createdAt,value
2023-01-19T00:01:39.227Z,24.17
2023-01-19T00:04:07.406Z,23.77
2023-01-19T00:06:36.667Z,22.63
2023-01-19T00:09:04.870Z,20.93
2023-01-19T00:11:32.704Z,22.03
2023-01-19T00:14:00.555Z,22.37
2023-01-19T00:16:28.419Z,21.87
2023-01-19T00:18:56.472Z,23.73
2023-01-19T00:21:24.585Z,24.57
2023-01-19T00:23:53.820Z,20.80
2023-01-19T00:26:22.955Z,23.87
2023-01-19T00:28:52.858Z,22.73
2023-01-19T00:31:21.756Z,24.40
2023-01-19T00:33:51.483Z,21.57
2023-01-19T00:36:20.408Z,23.20
2023-01-19T00:38:48.244Z,22.40
2023-01-19T00:41:17.855Z,21.87
2023-01-19T00:43:45.151Z,23.50
2023-01-19T00:46:13.020Z,20.37
2023-01-19T00:48:40.868Z,20.57
2023-01-19T00:51:08.688Z,21.47
2023-01-19T00:53:36.486Z,22.53
2023-01-19T00:56:04.402Z,23.17
2023-01-19T00:58:33.516Z,21.40
2023-01-19T01:01:03.611Z,21.27
2023-01-19T01:03:31.810Z,24.50
2023-01-19T01:05:59.761Z,20.40
2023-01-19T01:08:27.653Z,22.07
2023-01-19T01:10:56.009Z,22.67
2023-01-19T01:13:27.301Z,23.00
2023-01-19T01:15:57.686Z,19.13
2023-01-19T01:18:26.096Z,23.27
2023-01-19T01:20:56.046Z,24.87
2023-01-19T01:23:24.325Z,21.47
2023-01-19T01:25:52.110Z,20.23
2023-01-19T01:28:20.188Z,20.03
2023-01-19T01:30:48.249Z,20.60
2023-01-19T01:33:40.404Z,21.53
2023-01-19T01:36:05.886Z,20.40
2023-01-19T01:38:33.833Z,20.20
2023-01-19T01:41:01.714Z,22.67
2023-01-19T01:43:44.766Z,22.97
2023-01-19T01:46:15.394Z,19.73
2023-01-19T01:48:49.871Z,23.30
2023-01-19T01:51:26.768Z,23.30
2023-01-19T01:54:17.690Z,20.80
2023-01-19T01:56:47.964Z,20.87
2023-01-19T01:59:25.744Z,23.23
2023-01-19T02:02:14.369Z,20.20
2023-01-19T02:04:50.628Z,20.30
2023-01-19T02:07:48.379Z,20.50
2023-01-19T02:10:34.607Z,19.20
2023-01-19T02:13:19.373Z,17.33
2023-01-19T02:15:47.762Z,24.70
2023-01-19T02:18:15.616Z,19.93
2023-01-19T02:20:54.641Z,19.67
2023-01-19T02:23:43.779Z,17.63
2023-01-19T02:26:15.276Z,21.60
2023-01-19T02:28:48.209Z,19.43
2023-01-19T02:31:16.218Z,21.33
2023-01-19T02:33:44.502Z,19.07
2023-01-19T02:36:15.822Z,23.90
2023-01-19T02:38:46.605Z,20.93
2023-01-19T02:41:17.974Z,18.90
2023-01-19T02:43:47.154Z,18.40
2023-01-19T02:46:15.451Z,20.43
2023-01-19T02:48:43.779Z,21.73
2023-01-19T02:51:15.495Z,21.00
2023-01-19T02:54:06.275Z,20.13
2023-01-19T02:56:55.967Z,17.33
2023-01-19T02:59:38.183Z,18.80
2023-01-19T03:02:22.338Z,21.00
2023-01-19T03:05:01.056Z,16.30
2023-01-19T03:07:40.011Z,19.37
2023-01-19T03:10:16.592Z,17.30
2023-01-19T03:12:51.682Z,16.73
2023-01-19T03:15:24.284Z,17.40
2023-01-19T03:17:53.962Z,20.30
2023-01-19T03:20:25.511Z,17.00
2023-01-19T03:22:58.738Z,19.97
2023-01-19T03:25:31.462Z,21.10
2023-01-19T03:27:59.763Z,19.00
2023-01-19T03:30:30.039Z,18.30
2023-01-19T03:33:03.187Z,18.93
2023-01-19T03:35:35.532Z,19.23
2023-01-19T03:38:08.581Z,17.67
2023-01-19T03:40:38.061Z,18.30
2023-01-19T03:43:07.189Z,22.57
2023-01-19T03:45:39.863Z,18.87
2023-01-19T03:48:08.362Z,19.07
2023-01-19T03:50:36.240Z,18.60
2023-01-19T03:53:09.115Z,18.73
2023-01-19T03:55:40.796Z,18.43
2023-01-19T03:58:08.747Z,16.63
2023-01-19T04:00:36.838Z,20.33
2023-01-19T04:03:05.238Z,19.20
2023-01-19T04:05:33.966Z,18.20
2023-01-19T04:08:01.841Z,19.73
2023-01-19T04:10:29.626Z,21.30
2023-01-19T04:13:03.310Z,17.93
2023-01-19T04:15:31.990Z,18.17
2023-01-19T04:18:00.758Z,19.43
2023-01-19T04:20:29.197Z,19.03
2023-01-19T04:23:00.734Z,20.47
2023-01-19T04:25:29.154Z,16.87
2023-01-19T04:27:58.149Z,19.77
2023-01-19T04:30:28.016Z,17.87
2023-01-19T04:32:56.254Z,17.60
2023-01-19T04:35:24.368Z,17.87
2023-01-19T04:37:52.193Z,21.67
2023-01-19T04:40:20.325Z,17.90
2023-01-19T04:42:48.107Z,22.00
2023-01-19T04:45:17.042Z,19.43
2023-01-19T04:47:46.303Z,20.67
2023-01-19T04:50:15.114Z,18.00
2023-01-19T04:52:42.959Z,19.47
2023-01-19T04:55:11.599Z,20.07
2023-01-19T04:57:39.630Z,22.10
2023-01-19T05:00:09.893Z,18.90
2023-01-19T05:02:38.123Z,22.17
2023-01-19T05:05:07.742Z,15.70
2023-01-19T05:07:35.854Z,18.50
2023-01-19T05:10:03.715Z,20.77
2023-01-19T05:12:31.538Z,18.83
2023-01-19T05:14:59.338Z,18.80
2023-01-19T05:17:27.349Z,21.00
2023-01-19T05:19:55.160Z,18.57
2023-01-19T05:22:24.441Z,21.67
2023-01-19T05:24:52.303Z,20.03
2023-01-19T05:27:20.186Z,20.53
2023-01-19T05:29:48.029Z,21.67
2023-01-19T05:32:15.920Z,21.93
2023-01-19T05:34:43.740Z,22.30
2023-01-19T05:37:11.678Z,22.40
2023-01-19T05:39:40.859Z,18.97
2023-01-19T05:42:08.699Z,24.90
2023-01-19T05:44:36.499Z,21.23
2023-01-19T05:47:05.116Z,23.13
2023-01-19T05:49:32.953Z,20.20
2023-01-19T05:52:00.795Z,23.77
2023-01-19T05:54:28.746Z,23.73
2023-01-19T05:56:58.160Z,20.97
2023-01-19T05:59:26.056Z,22.53
2023-01-19T06:01:54.243Z,22.47
2023-01-19T06:04:22.339Z,21.73
2023-01-19T06:06:50.921Z,22.77
2023-01-19T06:09:18.915Z,24.17
2023-01-19T06:11:47.818Z,22.60
2023-01-19T06:14:17.150Z,21.53
2023-01-19T06:16:45.158Z,20.83
2023-01-19T06:19:13.678Z,24.57
2023-01-19T06:21:41.648Z,21.37
2023-01-19T06:24:12.121Z,23.17
2023-01-19T06:26:40.985Z,22.10
2023-01-19T06:29:09.633Z,23.73
2023-01-19T06:31:38.854Z,22.10
2023-01-19T06:34:06.751Z,25.73
2023-01-19T06:36:34.616Z,26.13
2023-01-19T06:39:05.027Z,22.57
2023-01-19T06:41:33.482Z,22.60
2023-01-19T06:44:01.351Z,22.30
2023-01-19T06:46:29.707Z,26.13
2023-01-19T06:48:58.953Z,27.27
2023-01-19T06:51:26.897Z,27.10
2023-01-19T06:53:54.716Z,24.50
2023-01-19T06:56:22.732Z,27.90
2023-01-19T06:58:51.844Z,24.97
2023-01-19T07:01:20.292Z,25.07
2023-01-19T07:03:48.203Z,28.88
2023-01-19T07:06:17.361Z,28.53
2023-01-19T07:08:45.207Z,26.30
2023-01-19T07:11:25.651Z,23.57
2023-01-19T07:13:58.468Z,24.60
2023-01-19T07:16:26.497Z,24.77
2023-01-19T07:18:54.365Z,25.03
2023-01-19T07:21:24.137Z,24.93
2023-01-19T07:23:53.138Z,24.23
2023-01-19T07:26:21.626Z,25.43
2023-01-19T07:28:49.957Z,27.07
2023-01-19T07:31:19.014Z,25.20
2023-01-19T07:33:47.672Z,30.00
2023-01-19T07:36:15.848Z,22.93
2023-01-19T07:38:45.352Z,26.43
2023-01-19T07:41:13.780Z,26.83
2023-01-19T07:43:41.768Z,24.23
2023-01-19T07:46:09.794Z,27.43
2023-01-19T07:48:37.833Z,29.30
2023-01-19T07:51:10.985Z,27.30
2023-01-19T07:53:41.724Z,27.30
2023-01-19T07:56:11.466Z,29.70
2023-01-19T07:58:39.509Z,28.13
2023-01-19T08:01:08.771Z,31.73
2023-01-19T08:03:37.036Z,31.27
2023-01-19T08:06:06.016Z,27.97
2023-01-19T08:08:35.211Z,33.10
2023-01-19T08:11:03.071Z,29.50
2023-01-19T08:13:32.267Z,29.47
2023-01-19T08:16:00.173Z,30.60
2023-01-19T08:18:27.989Z,26.93
2023-01-19T08:20:55.998Z,28.87
2023-01-19T08:23:24.023Z,31.43
2023-01-19T08:25:51.926Z,27.50
2023-01-19T08:28:19.948Z,28.97
2023-01-19T08:30:54.104Z,28.83
2023-01-19T08:33:23.043Z,30.47
2023-01-19T08:35:53.025Z,32.30
2023-01-19T08:38:21.201Z,32.77
2023-01-19T08:40:49.930Z,32.73
2023-01-19T08:43:18.597Z,29.50
2023-01-19T08:45:51.027Z,35.47
2023-01-19T08:48:22.292Z,32.53
2023-01-19T08:50:51.974Z,34.70
2023-01-19T08:53:20.979Z,33.67
2023-01-19T08:55:48.883Z,31.40
2023-01-19T08:58:17.365Z,35.57
2023-01-19T09:00:45.452Z,36.43
2023-01-19T09:03:14.387Z,34.60
2023-01-19T09:05:43.699Z,32.00
2023-01-19T09:08:13.886Z,32.10
2023-01-19T09:10:47.473Z,31.73
2023-01-19T09:13:15.763Z,33.80
2023-01-19T09:15:44.312Z,36.37
2023-01-19T09:18:14.263Z,33.87
2023-01-19T09:20:44.648Z,37.63
2023-01-19T09:23:13.730Z,33.67
2023-01-19T09:25:43.165Z,33.90
2023-01-19T09:28:14.459Z,37.80
2023-01-19T09:30:43.404Z,34.93
2023-01-19T09:33:15.097Z,37.23
2023-01-19T09:35:45.721Z,32.83
2023-01-19T09:38:15.172Z,34.07
2023-01-19T09:40:44.729Z,34.47
2023-01-19T09:43:15.550Z,36.63
2023-01-19T09:45:50.651Z,36.07
2023-01-19T09:48:30.658Z,33.33
2023-01-19T09:51:03.436Z,33.60
2023-01-19T09:53:44.675Z,34.17
2023-01-19T09:56:14.710Z,33.47
2023-01-19T09:58:42.975Z,33.00
2023-01-19T10:01:25.168Z,33.20
2023-01-19T10:04:12.404Z,33.60
2023-01-19T10:06:41.945Z,33.83
2023-01-19T10:09:19.619Z,29.03
2023-01-19T10:11:53.092Z,30.37
2023-01-19T10:14:30.281Z,32.60
2023-01-19T10:17:06.680Z,30.03
2023-01-19T10:19:38.560Z,32.03
2023-01-19T10:22:19.200Z,27.43
2023-01-19T10:24:48.282Z,32.07
2023-01-19T10:27:18.588Z,29.83
2023-01-19T10:29:47.202Z,31.13
2023-01-19T10:32:19.661Z,32.20
2023-01-19T10:34:47.981Z,30.23
2023-01-19T10:37:26.546Z,31.17
2023-01-19T10:39:57.185Z,28.30
2023-01-19T10:42:28.967Z,34.13
2023-01-19T10:44:56.866Z,33.47
2023-01-19T10:47:32.238Z,32.23
2023-01-19T10:50:00.232Z,29.70
2023-01-19T10:52:32.773Z,29.00
2023-01-19T10:55:01.695Z,31.87
2023-01-19T10:57:32.889Z,31.87
2023-01-19T11:00:00.753Z,30.20
2023-01-19T11:02:31.294Z,29.63
2023-01-19T11:05:01.595Z,29.77
2023-01-19T11:07:33.503Z,31.03
2023-01-19T11:10:21.726Z,29.57
2023-01-19T11:12:58.145Z,31.13
2023-01-19T11:15:30.537Z,30.20
2023-01-19T11:17:58.955Z,30.60
2023-01-19T11:20:30.269Z,31.33
2023-01-19T11:23:23.359Z,28.57
2023-01-19T11:25:52.923Z,28.23
2023-01-19T11:28:25.438Z,27.47
2023-01-19T11:30:58.832Z,29.33
2023-01-19T11:33:33.190Z,27.73
2023-01-19T11:36:07.863Z,28.17
2023-01-19T11:38:44.030Z,27.80
2023-01-19T11:41:19.008Z,26.50
2023-01-19T11:43:49.586Z,22.67
2023-01-19T11:46:18.499Z,26.63
2023-01-19T11:48:50.778Z,25.93
2023-01-19T11:51:22.311Z,24.20
2023-01-19T11:53:53.855Z,23.23
2023-01-19T11:56:24.407Z,23.07
2023-01-19T11:58:52.502Z,23.60
2023-01-19T12:01:24.728Z,23.93
2023-01-19T12:03:59.608Z,25.53
2023-01-19T12:06:31.903Z,24.33
2023-01-19T12:09:04.354Z,22.23
2023-01-19T12:11:35.594Z,23.83
2023-01-19T12:14:04.213Z,23.60
2023-01-19T12:16:36.116Z,22.10
2023-01-19T12:19:07.268Z,23.67
2023-01-19T12:21:35.164Z,21.97
2023-01-19T12:24:15.988Z,21.63
2023-01-19T12:26:51.785Z,22.67
2023-01-19T12:29:22.649Z,23.50
2023-01-19T12:32:17.661Z,21.60
2023-01-19T12:34:46.578Z,21.23
2023-01-19T12:37:37.698Z,22.73
2023-01-19T12:40:26.967Z,24.50
2023-01-19T12:43:01.273Z,23.27
2023-01-19T12:45:34.491Z,23.30
2023-01-19T12:48:03.085Z,23.70
2023-01-19T12:50:36.016Z,24.57
2023-01-19T12:53:08.237Z,24.90
2023-01-19T12:55:39.003Z,23.27
2023-01-19T12:58:13.822Z,22.03
2023-01-19T13:00:43.218Z,23.17
2023-01-19T13:03:47.785Z,28.60
2023-01-19T13:06:15.683Z,25.53
2023-01-19T13:09:00.925Z,21.00
2023-01-19T13:11:34.311Z,22.80
2023-01-19T13:14:35.054Z,25.33
2023-01-19T13:17:41.985Z,23.57
2023-01-19T13:20:24.727Z,24.87
2023-01-19T13:23:18.435Z,24.70
2023-01-19T13:25:53.788Z,22.67
2023-01-19T13:28:34.113Z,24.23
2023-01-19T13:31:03.781Z,22.27
2023-01-19T13:33:47.594Z,24.23
2023-01-19T13:36:26.489Z,24.50
2023-01-19T13:38:55.624Z,22.63
2023-01-19T13:41:26.720Z,26.83
2023-01-19T13:44:01.900Z,21.50
2023-01-19T13:46:31.444Z,21.70
2023-01-19T13:49:03.482Z,21.00
2023-01-19T13:51:31.366Z,20.83
2023-01-19T13:54:01.482Z,20.23
2023-01-19T13:56:30.308Z,21.27
2023-01-19T13:59:09.788Z,21.40
2023-01-19T14:01:39.655Z,20.40
2023-01-19T14:04:24.785Z,22.00
2023-01-19T14:06:55.508Z,19.77
2023-01-19T14:09:24.108Z,17.80
2023-01-19T14:12:15.033Z,21.17
2023-01-19T14:14:46.639Z,17.57
2023-01-19T14:17:24.842Z,19.67
2023-01-19T14:19:54.399Z,19.50
2023-01-19T14:22:22.559Z,17.83
2023-01-19T14:24:50.395Z,19.80
2023-01-19T14:27:21.833Z,20.13
2023-01-19T14:29:54.624Z,18.57
2023-01-19T14:32:24.048Z,18.63
2023-01-19T14:34:53.796Z,20.33
2023-01-19T14:37:28.113Z,18.17
2023-01-19T14:40:00.273Z,19.23
2023-01-19T14:42:31.845Z,19.73
2023-01-19T14:45:03.422Z,17.30
2023-01-19T14:47:37.829Z,18.33
2023-01-19T14:50:19.491Z,19.43
2023-01-19T14:52:53.488Z,18.00
2023-01-19T14:55:26.431Z,19.67
2023-01-19T14:57:55.953Z,21.43
2023-01-19T15:00:27.002Z,21.70
2023-01-19T15:02:54.862Z,23.43
2023-01-19T15:05:23.928Z,20.33
2023-01-19T15:07:53.128Z,20.87
2023-01-19T15:10:23.898Z,20.57
2023-01-19T15:12:53.498Z,21.43
2023-01-19T15:15:33.923Z,21.53
2023-01-19T15:18:04.018Z,21.83
2023-01-19T15:20:32.012Z,20.63
2023-01-19T15:22:59.862Z,20.77
2023-01-19T15:25:27.733Z,22.13
2023-01-19T15:27:59.219Z,22.77
2023-01-19T15:30:29.631Z,20.40
2023-01-19T15:32:59.127Z,21.20
2023-01-19T15:35:27.125Z,21.93
2023-01-19T15:37:55.143Z,33.80
2023-01-19T15:40:23.215Z,19.07
2023-01-19T15:42:51.515Z,17.87
2023-01-19T15:45:39.266Z,17.40
2023-01-19T15:48:10.237Z,15.53
2023-01-19T15:50:41.184Z,18.23
2023-01-19T15:53:12.807Z,18.20
2023-01-19T15:55:40.763Z,14.97
2023-01-19T15:58:09.270Z,13.13
2023-01-19T16:00:37.432Z,14.30
2023-01-19T16:03:05.426Z,13.57
2023-01-19T16:05:42.964Z,14.50
2023-01-19T16:08:11.997Z,15.07
2023-01-19T16:10:40.359Z,17.17
2023-01-19T16:13:08.581Z,20.27
2023-01-19T16:15:37.618Z,21.47
2023-01-19T16:18:06.416Z,20.30
2023-01-19T16:20:35.576Z,22.57
2023-01-19T16:23:14.404Z,21.17
2023-01-19T16:25:43.005Z,20.60
2023-01-19T16:28:10.940Z,23.23
2023-01-19T16:30:38.917Z,20.30
2023-01-19T16:33:08.291Z,17.37
2023-01-19T16:35:37.502Z,19.87
2023-01-19T16:38:05.320Z,27.53
2023-01-19T16:40:33.188Z,23.03
2023-01-19T16:43:01.064Z,26.53
2023-01-19T16:45:28.927Z,25.70
2023-01-19T16:47:56.809Z,24.47
2023-01-19T16:50:24.685Z,23.00
2023-01-19T16:52:57.224Z,29.97
2023-01-19T16:55:25.090Z,24.37
2023-01-19T16:57:53.379Z,23.73
2023-01-19T17:00:21.681Z,21.73
2023-01-19T17:02:49.599Z,19.10
2023-01-19T17:05:17.546Z,19.37
2023-01-19T17:07:45.367Z,22.20
2023-01-19T17:10:14.644Z,25.57
2023-01-19T17:12:42.424Z,19.43
2023-01-19T17:15:11.008Z,21.50
2023-01-19T17:17:39.129Z,22.37
2023-01-19T17:20:08.257Z,22.57
2023-01-19T17:22:36.189Z,22.40
2023-01-19T17:25:04.373Z,24.17
2023-01-19T17:27:35.789Z,23.43
2023-01-19T17:30:03.752Z,22.90
2023-01-19T17:32:31.558Z,21.47
2023-01-19T17:34:59.403Z,24.50
2023-01-19T17:37:27.189Z,25.20
2023-01-19T17:39:56.240Z,22.73
2023-01-19T17:42:24.281Z,21.43
2023-01-19T17:44:53.603Z,23.33
2023-01-19T17:47:25.292Z,26.57
2023-01-19T17:49:53.230Z,21.53
2023-01-19T17:52:21.020Z,25.20
2023-01-19T17:54:48.922Z,27.60
2023-01-19T17:57:16.850Z,24.33
2023-01-19T17:59:46.783Z,24.60
2023-01-19T18:02:16.105Z,25.47
2023-01-19T18:04:44.398Z,23.60
2023-01-19T18:07:12.219Z,23.87
2023-01-19T18:09:40.109Z,27.40
2023-01-19T18:12:08.155Z,23.93
2023-01-19T18:14:36.097Z,25.43
2023-01-19T18:17:03.941Z,27.47
2023-01-19T18:19:33.227Z,29.17
2023-01-19T18:22:01.051Z,25.70
2023-01-19T18:24:29.243Z,25.70
2023-01-19T18:26:57.065Z,26.43
2023-01-19T18:29:25.008Z,24.33
2023-01-19T18:31:52.847Z,25.43
2023-01-19T18:34:20.745Z,22.73
2023-01-19T18:36:49.873Z,25.23
2023-01-19T18:39:17.741Z,28.20
2023-01-19T18:41:45.539Z,26.40
2023-01-19T18:44:13.820Z,23.00
2023-01-19T18:46:41.752Z,24.67
2023-01-19T18:49:10.051Z,25.87
2023-01-19T18:51:39.450Z,23.67
2023-01-19T18:54:09.270Z,24.07
2023-01-19T18:56:37.063Z,22.50
2023-01-19T18:59:04.980Z,25.97
2023-01-19T19:01:35.198Z,21.60
2023-01-19T19:04:03.368Z,21.57
2023-01-19T19:06:31.258Z,22.17
2023-01-19T19:09:00.053Z,18.90
2023-01-19T19:11:29.239Z,23.37
2023-01-19T19:13:58.559Z,23.63
2023-01-19T19:16:26.771Z,27.53
2023-01-19T19:18:54.796Z,19.17
2023-01-19T19:21:25.125Z,19.10
2023-01-19T19:23:53.976Z,17.80
2023-01-19T19:26:22.182Z,19.40
2023-01-19T19:28:51.451Z,15.53
2023-01-19T19:31:21.639Z,14.00
2023-01-19T19:33:50.750Z,18.60
2023-01-19T19:36:19.845Z,14.23
2023-01-19T19:38:48.174Z,15.17
2023-01-19T19:41:20.243Z,20.97
2023-01-19T19:43:48.304Z,25.87
2023-01-19T19:46:20.032Z,15.73
2023-01-19T19:48:48.386Z,14.77
2023-01-19T19:51:19.438Z,12.77
2023-01-19T19:53:51.234Z,15.43
2023-01-19T19:56:20.913Z,10.00
2023-01-19T19:58:49.457Z,12.90
2023-01-19T20:01:21.301Z,14.43
2023-01-19T20:03:49.343Z,14.40
2023-01-19T20:06:20.597Z,12.47
2023-01-19T20:08:48.901Z,11.83
2023-01-19T20:11:18.290Z,11.67
2023-01-19T20:13:47.603Z,9.80
2023-01-19T20:16:18.664Z,10.23
2023-01-19T20:18:51.001Z,12.00
2023-01-19T20:21:21.177Z,11.33
2023-01-19T20:23:52.813Z,12.23
2023-01-19T20:26:22.875Z,9.27
2023-01-19T20:28:50.736Z,11.40
2023-01-19T20:31:22.442Z,12.83
2023-01-19T20:33:52.155Z,11.17
2023-01-19T20:36:21.908Z,15.53
2023-01-19T20:38:49.751Z,11.27
2023-01-19T20:41:18.255Z,9.30
2023-01-19T20:43:46.325Z,12.93
2023-01-19T20:46:14.232Z,20.70
2023-01-19T20:48:43.611Z,21.87
2023-01-19T20:51:13.818Z,11.27
2023-01-19T20:53:42.690Z,12.00
2023-01-19T20:56:13.547Z,15.77
2023-01-19T20:58:42.038Z,8.50
2023-01-19T21:01:14.505Z,7.43
2023-01-19T21:03:43.842Z,6.30
2023-01-19T21:06:12.425Z,8.23
2023-01-19T21:08:40.766Z,9.03
2023-01-19T21:11:08.863Z,8.60
2023-01-19T21:13:37.646Z,6.67
2023-01-19T21:16:06.514Z,8.87
2023-01-19T21:18:34.647Z,9.93
2023-01-19T21:21:03.779Z,7.97
2023-01-19T21:23:31.652Z,7.83
2023-01-19T21:26:01.698Z,6.73
2023-01-19T21:28:30.121Z,8.03
2023-01-19T21:30:57.912Z,6.20
2023-01-19T21:33:26.043Z,6.47
2023-01-19T21:35:55.558Z,7.80
2023-01-19T21:38:27.669Z,6.23
2023-01-19T21:40:56.130Z,9.33
2023-01-19T21:43:24.271Z,10.47
2023-01-19T21:45:52.472Z,4.83
2023-01-19T21:48:20.655Z,8.30
2023-01-19T21:50:57.604Z,6.30
2023-01-19T21:53:26.944Z,9.53
2023-01-19T21:55:54.843Z,11.43
2023-01-19T21:58:23.811Z,12.33
2023-01-19T22:00:51.823Z,11.80
2023-01-19T22:03:19.796Z,9.57
2023-01-19T22:05:47.712Z,6.73
2023-01-19T22:08:15.551Z,12.03
2023-01-19T22:10:44.880Z,11.00
2023-01-19T22:13:12.695Z,10.07
2023-01-19T22:15:40.556Z,11.50
2023-01-19T22:18:08.455Z,8.10
2023-01-19T22:20:36.355Z,7.33
2023-01-19T22:23:04.226Z,7.33
2023-01-19T22:25:33.962Z,8.40
2023-01-19T22:28:03.154Z,6.97
2023-01-19T22:30:31.107Z,10.90
2023-01-19T22:32:59.169Z,7.27
2023-01-19T22:35:27.103Z,9.37
2023-01-19T22:37:55.037Z,10.37
2023-01-19T22:40:22.892Z,8.47
2023-01-19T22:42:50.824Z,11.03
2023-01-19T22:45:21.688Z,9.00
2023-01-19T22:47:49.616Z,8.00
2023-01-19T22:50:17.631Z,9.30
2023-01-19T22:52:45.538Z,10.33
2023-01-19T22:55:13.617Z,9.20
2023-01-19T22:57:41.624Z,8.60
2023-01-19T23:00:10.649Z,7.73
2023-01-19T23:02:39.935Z,10.53
2023-01-19T23:05:08.548Z,8.77
2023-01-19T23:07:36.562Z,9.67
2023-01-19T23:10:04.546Z,10.70
2023-01-19T23:12:32.451Z,10.43
2023-01-19T23:15:00.253Z,10.30
2023-01-19T23:17:28.310Z,8.60
2023-01-19T23:19:57.487Z,7.77
2023-01-19T23:22:25.368Z,8.43
2023-01-19T23:24:53.324Z,9.23
2023-01-19T23:27:21.207Z,9.57
2023-01-19T23:29:49.032Z,8.00
2023-01-19T23:32:16.911Z,11.70
2023-01-19T23:34:44.726Z,12.20
2023-01-19T23:37:14.140Z,8.63
2023-01-19T23:39:42.214Z,7.77
2023-01-19T23:42:10.015Z,6.70
2023-01-19T23:44:38.051Z,10.57
2023-01-19T23:47:05.965Z,8.03
2023-01-19T23:49:33.911Z,12.53
2023-01-19T23:52:01.736Z,7.93
2023-01-19T23:54:31.000Z,8.63
2023-01-19T23:56:58.839Z,7.80
2023-01-19T23:59:26.739Z,10.47
